sensor_id;sensor_type;location;lat;lon;timestamp;P1;durP1;ratioP1;P2;durP2;ratioP2
27558;SDS011;15002;52.028;5.670;2023-03-21T00:00:29;41.03;;;21.80;;
27558;SDS011;15002;52.028;5.670;2023-03-21T00:02:55;34.45;;;22.15;;
27558;SDS011;15002;52.028;5.670;2023-03-21T00:05:21;42.75;;;23.27;;
27558;SDS011;15002;52.028;5.670;2023-03-21T00:07:47;37.03;;;22.70;;
27558;SDS011;15002;52.028;5.670;2023-03-21T00:10:13;37.65;;;21.75;;
27558;SDS011;15002;52.028;5.670;2023-03-21T00:12:39;34.35;;;21.98;;
27558;SDS011;15002;52.028;5.670;2023-03-21T00:15:07;35.35;;;20.50;;
27558;SDS011;15002;52.028;5.670;2023-03-21T00:17:33;40.45;;;21.27;;
27558;SDS011;15002;52.028;5.670;2023-03-21T00:20:00;35.03;;;21.02;;
27558;SDS011;15002;52.028;5.670;2023-03-21T00:22:30;37.63;;;22.17;;
27558;SDS011;15002;52.028;5.670;2023-03-21T00:24:58;34.72;;;21.05;;
27558;SDS011;15002;52.028;5.670;2023-03-21T00:27:23;34.75;;;22.15;;
27558;SDS011;15002;52.028;5.670;2023-03-21T00:29:49;40.80;;;23.45;;
27558;SDS011;15002;52.028;5.670;2023-03-21T00:32:15;37.90;;;23.20;;
27558;SDS011;15002;52.028;5.670;2023-03-21T00:34:41;42.25;;;23.73;;
27558;SDS011;15002;52.028;5.670;2023-03-21T00:37:07;40.72;;;23.50;;
27558;SDS011;15002;52.028;5.670;2023-03-21T00:39:34;42.55;;;23.77;;
27558;SDS011;15002;52.028;5.670;2023-03-21T00:42:00;43.17;;;24.27;;
27558;SDS011;15002;52.028;5.670;2023-03-21T00:44:26;41.67;;;23.00;;
27558;SDS011;15002;52.028;5.670;2023-03-21T00:46:51;38.53;;;22.83;;
27558;SDS011;15002;52.028;5.670;2023-03-21T00:49:17;39.47;;;23.98;;
27558;SDS011;15002;52.028;5.670;2023-03-21T00:51:46;39.35;;;25.13;;
27558;SDS011;15002;52.028;5.670;2023-03-21T00:54:15;40.97;;;23.02;;
27558;SDS011;15002;52.028;5.670;2023-03-21T00:56:41;39.13;;;24.38;;
27558;SDS011;15002;52.028;5.670;2023-03-21T00:59:07;38.97;;;23.40;;
27558;SDS011;15002;52.028;5.670;2023-03-21T01:01:33;40.70;;;24.85;;
27558;SDS011;15002;52.028;5.670;2023-03-21T01:04:00;40.65;;;23.58;;
27558;SDS011;15002;52.028;5.670;2023-03-21T01:06:29;41.30;;;24.33;;
27558;SDS011;15002;52.028;5.670;2023-03-21T01:08:56;37.03;;;23.88;;
27558;SDS011;15002;52.028;5.670;2023-03-21T01:11:23;39.28;;;22.90;;
27558;SDS011;15002;52.028;5.670;2023-03-21T01:13:50;41.17;;;22.67;;
27558;SDS011;15002;52.028;5.670;2023-03-21T01:16:16;40.10;;;23.20;;
27558;SDS011;15002;52.028;5.670;2023-03-21T01:18:42;36.58;;;23.23;;
27558;SDS011;15002;52.028;5.670;2023-03-21T01:21:09;40.15;;;23.20;;
27558;SDS011;15002;52.028;5.670;2023-03-21T01:23:37;46.25;;;23.90;;
27558;SDS011;15002;52.028;5.670;2023-03-21T01:26:04;38.92;;;22.75;;
27558;SDS011;15002;52.028;5.670;2023-03-21T01:28:31;40.25;;;22.38;;
27558;SDS011;15002;52.028;5.670;2023-03-21T01:31:00;40.70;;;23.95;;
27558;SDS011;15002;52.028;5.670;2023-03-21T01:33:28;43.50;;;22.92;;
27558;SDS011;15002;52.028;5.670;2023-03-21T01:35:54;38.80;;;23.45;;
27558;SDS011;15002;52.028;5.670;2023-03-21T01:38:20;39.13;;;21.55;;
27558;SDS011;15002;52.028;5.670;2023-03-21T01:40:46;45.70;;;22.27;;
27558;SDS011;15002;52.028;5.670;2023-03-21T01:43:26;38.00;;;22.48;;
27558;SDS011;15002;52.028;5.670;2023-03-21T01:51:47;33.40;;;20.92;;
27558;SDS011;15002;52.028;5.670;2023-03-21T01:54:19;37.78;;;21.35;;
27558;SDS011;15002;52.028;5.670;2023-03-21T01:56:48;40.53;;;21.83;;
27558;SDS011;15002;52.028;5.670;2023-03-21T01:59:18;39.42;;;22.15;;
27558;SDS011;15002;52.028;5.670;2023-03-21T02:01:47;36.97;;;22.27;;
27558;SDS011;15002;52.028;5.670;2023-03-21T02:04:14;42.47;;;22.40;;
27558;SDS011;15002;52.028;5.670;2023-03-21T02:06:51;34.33;;;21.50;;
27558;SDS011;15002;52.028;5.670;2023-03-21T02:09:19;37.25;;;21.33;;
27558;SDS011;15002;52.028;5.670;2023-03-21T02:11:48;34.57;;;21.10;;
27558;SDS011;15002;52.028;5.670;2023-03-21T02:14:15;37.38;;;21.73;;
27558;SDS011;15002;52.028;5.670;2023-03-21T02:16:47;35.92;;;21.33;;
27558;SDS011;15002;52.028;5.670;2023-03-21T02:22:35;33.53;;;20.95;;
27558;SDS011;15002;52.028;5.670;2023-03-21T02:47:47;33.70;;;20.42;;
27558;SDS011;15002;52.028;5.670;2023-03-21T02:52:50;34.72;;;20.65;;
27558;SDS011;15002;52.028;5.670;2023-03-21T02:55:24;37.40;;;22.52;;
27558;SDS011;15002;52.028;5.670;2023-03-21T02:57:52;35.00;;;21.73;;
27558;SDS011;15002;52.028;5.670;2023-03-21T03:00:21;36.47;;;22.10;;
27558;SDS011;15002;52.028;5.670;2023-03-21T03:02:50;38.90;;;22.73;;
27558;SDS011;15002;52.028;5.670;2023-03-21T03:13:09;37.85;;;23.10;;
27558;SDS011;15002;52.028;5.670;2023-03-21T03:28:45;38.08;;;22.83;;
27558;SDS011;15002;52.028;5.670;2023-03-21T03:33:46;37.80;;;22.52;;
27558;SDS011;15002;52.028;5.670;2023-03-21T03:36:16;40.53;;;23.00;;
27558;SDS011;15002;52.028;5.670;2023-03-21T03:38:45;35.53;;;22.63;;
27558;SDS011;15002;52.028;5.670;2023-03-21T03:41:17;34.65;;;22.17;;
27558;SDS011;15002;52.028;5.670;2023-03-21T03:43:48;35.80;;;21.98;;
27558;SDS011;15002;52.028;5.670;2023-03-21T03:46:38;45.85;;;22.60;;
27558;SDS011;15002;52.028;5.670;2023-03-21T03:49:22;38.00;;;22.00;;
27558;SDS011;15002;52.028;5.670;2023-03-21T03:51:53;41.20;;;22.90;;
27558;SDS011;15002;52.028;5.670;2023-03-21T03:54:38;43.97;;;23.45;;
27558;SDS011;15002;52.028;5.670;2023-03-21T03:57:07;38.88;;;21.45;;
27558;SDS011;15002;52.028;5.670;2023-03-21T03:59:37;37.60;;;22.05;;
27558;SDS011;15002;52.028;5.670;2023-03-21T04:02:04;39.55;;;22.17;;
27558;SDS011;15002;52.028;5.670;2023-03-21T04:04:30;38.60;;;22.08;;
27558;SDS011;15002;52.028;5.670;2023-03-21T04:06:56;36.53;;;20.67;;
27558;SDS011;15002;52.028;5.670;2023-03-21T04:09:22;34.80;;;20.35;;
27558;SDS011;15002;52.028;5.670;2023-03-21T04:11:48;38.05;;;20.05;;
27558;SDS011;15002;52.028;5.670;2023-03-21T04:14:14;31.60;;;18.83;;
27558;SDS011;15002;52.028;5.670;2023-03-21T04:16:40;34.03;;;18.33;;
27558;SDS011;15002;52.028;5.670;2023-03-21T04:19:05;31.92;;;17.13;;
27558;SDS011;15002;52.028;5.670;2023-03-21T04:21:31;34.58;;;17.45;;
27558;SDS011;15002;52.028;5.670;2023-03-21T04:23:57;32.22;;;16.63;;
27558;SDS011;15002;52.028;5.670;2023-03-21T04:26:23;29.77;;;16.75;;
27558;SDS011;15002;52.028;5.670;2023-03-21T04:28:49;33.05;;;16.48;;
27558;SDS011;15002;52.028;5.670;2023-03-21T04:31:15;31.30;;;15.50;;
27558;SDS011;15002;52.028;5.670;2023-03-21T04:33:42;25.08;;;15.40;;
27558;SDS011;15002;52.028;5.670;2023-03-21T04:36:08;28.65;;;15.05;;
27558;SDS011;15002;52.028;5.670;2023-03-21T04:38:51;30.60;;;14.80;;
27558;SDS011;15002;52.028;5.670;2023-03-21T04:41:17;28.50;;;14.35;;
27558;SDS011;15002;52.028;5.670;2023-03-21T04:43:43;27.35;;;14.23;;
27558;SDS011;15002;52.028;5.670;2023-03-21T04:46:10;26.35;;;13.95;;
27558;SDS011;15002;52.028;5.670;2023-03-21T04:48:35;28.48;;;14.10;;
27558;SDS011;15002;52.028;5.670;2023-03-21T04:51:01;28.58;;;14.38;;
27558;SDS011;15002;52.028;5.670;2023-03-21T04:53:27;27.48;;;14.05;;
27558;SDS011;15002;52.028;5.670;2023-03-21T04:55:53;24.02;;;12.70;;
27558;SDS011;15002;52.028;5.670;2023-03-21T04:58:18;24.85;;;12.18;;
27558;SDS011;15002;52.028;5.670;2023-03-21T05:00:44;27.10;;;12.65;;
27558;SDS011;15002;52.028;5.670;2023-03-21T05:03:10;23.27;;;12.27;;
27558;SDS011;15002;52.028;5.670;2023-03-21T05:05:43;25.35;;;12.13;;
27558;SDS011;15002;52.028;5.670;2023-03-21T05:08:10;22.63;;;12.43;;
27558;SDS011;15002;52.028;5.670;2023-03-21T05:10:37;22.58;;;11.68;;
27558;SDS011;15002;52.028;5.670;2023-03-21T05:13:02;27.13;;;11.77;;
27558;SDS011;15002;52.028;5.670;2023-03-21T05:15:28;30.05;;;12.70;;
27558;SDS011;15002;52.028;5.670;2023-03-21T05:17:54;23.67;;;12.73;;
27558;SDS011;15002;52.028;5.670;2023-03-21T05:20:22;22.02;;;12.25;;
27558;SDS011;15002;52.028;5.670;2023-03-21T05:22:48;18.80;;;11.15;;
27558;SDS011;15002;52.028;5.670;2023-03-21T05:25:16;24.23;;;12.07;;
27558;SDS011;15002;52.028;5.670;2023-03-21T05:27:45;23.92;;;11.90;;
27558;SDS011;15002;52.028;5.670;2023-03-21T05:30:18;23.45;;;12.40;;
27558;SDS011;15002;52.028;5.670;2023-03-21T05:32:44;23.08;;;12.25;;
27558;SDS011;15002;52.028;5.670;2023-03-21T05:35:10;22.98;;;12.20;;
27558;SDS011;15002;52.028;5.670;2023-03-21T05:37:36;23.50;;;11.15;;
27558;SDS011;15002;52.028;5.670;2023-03-21T05:40:03;22.13;;;11.15;;
27558;SDS011;15002;52.028;5.670;2023-03-21T05:42:32;25.35;;;12.20;;
27558;SDS011;15002;52.028;5.670;2023-03-21T05:44:58;21.60;;;10.82;;
27558;SDS011;15002;52.028;5.670;2023-03-21T05:47:24;23.48;;;10.98;;
27558;SDS011;15002;52.028;5.670;2023-03-21T05:49:50;23.05;;;10.73;;
27558;SDS011;15002;52.028;5.670;2023-03-21T05:52:16;17.75;;;9.73;;
27558;SDS011;15002;52.028;5.670;2023-03-21T05:54:42;16.60;;;10.25;;
27558;SDS011;15002;52.028;5.670;2023-03-21T05:57:08;22.90;;;10.00;;
27558;SDS011;15002;52.028;5.670;2023-03-21T05:59:33;20.30;;;10.75;;
27558;SDS011;15002;52.028;5.670;2023-03-21T06:01:59;18.50;;;10.30;;
27558;SDS011;15002;52.028;5.670;2023-03-21T06:04:25;22.80;;;10.15;;
27558;SDS011;15002;52.028;5.670;2023-03-21T06:06:51;17.67;;;10.27;;
27558;SDS011;15002;52.028;5.670;2023-03-21T06:09:17;22.88;;;10.95;;
27558;SDS011;15002;52.028;5.670;2023-03-21T06:11:46;23.50;;;11.35;;
27558;SDS011;15002;52.028;5.670;2023-03-21T06:14:13;20.02;;;10.20;;
27558;SDS011;15002;52.028;5.670;2023-03-21T06:16:39;19.92;;;10.15;;
27558;SDS011;15002;52.028;5.670;2023-03-21T06:19:05;21.40;;;11.48;;
27558;SDS011;15002;52.028;5.670;2023-03-21T06:21:30;22.48;;;10.13;;
27558;SDS011;15002;52.028;5.670;2023-03-21T06:23:56;25.48;;;10.55;;
27558;SDS011;15002;52.028;5.670;2023-03-21T06:26:21;20.85;;;10.75;;
27558;SDS011;15002;52.028;5.670;2023-03-21T06:28:48;20.25;;;11.18;;
27558;SDS011;15002;52.028;5.670;2023-03-21T06:31:14;22.13;;;10.85;;
27558;SDS011;15002;52.028;5.670;2023-03-21T06:33:40;18.52;;;10.50;;
27558;SDS011;15002;52.028;5.670;2023-03-21T06:36:06;17.60;;;10.35;;
27558;SDS011;15002;52.028;5.670;2023-03-21T06:38:33;23.67;;;10.65;;
27558;SDS011;15002;52.028;5.670;2023-03-21T06:41:02;21.60;;;10.88;;
27558;SDS011;15002;52.028;5.670;2023-03-21T06:43:28;20.73;;;10.75;;
27558;SDS011;15002;52.028;5.670;2023-03-21T06:45:56;21.00;;;10.82;;
27558;SDS011;15002;52.028;5.670;2023-03-21T06:48:22;21.27;;;10.20;;
27558;SDS011;15002;52.028;5.670;2023-03-21T06:50:48;20.20;;;9.70;;
27558;SDS011;15002;52.028;5.670;2023-03-21T06:53:15;19.98;;;10.85;;
27558;SDS011;15002;52.028;5.670;2023-03-21T06:55:41;21.75;;;9.77;;
27558;SDS011;15002;52.028;5.670;2023-03-21T06:58:07;19.08;;;10.43;;
27558;SDS011;15002;52.028;5.670;2023-03-21T07:00:32;18.33;;;9.63;;
27558;SDS011;15002;52.028;5.670;2023-03-21T07:02:58;21.83;;;10.38;;
27558;SDS011;15002;52.028;5.670;2023-03-21T07:05:25;21.75;;;10.70;;
27558;SDS011;15002;52.028;5.670;2023-03-21T07:07:51;19.48;;;9.77;;
27558;SDS011;15002;52.028;5.670;2023-03-21T07:10:17;21.15;;;10.32;;
27558;SDS011;15002;52.028;5.670;2023-03-21T07:12:43;23.45;;;10.85;;
27558;SDS011;15002;52.028;5.670;2023-03-21T07:15:08;19.30;;;9.45;;
27558;SDS011;15002;52.028;5.670;2023-03-21T07:17:34;20.55;;;9.52;;
27558;SDS011;15002;52.028;5.670;2023-03-21T07:20:00;20.10;;;9.32;;
27558;SDS011;15002;52.028;5.670;2023-03-21T07:22:29;19.48;;;10.02;;
27558;SDS011;15002;52.028;5.670;2023-03-21T07:24:54;22.40;;;10.50;;
27558;SDS011;15002;52.028;5.670;2023-03-21T07:27:20;22.27;;;11.13;;
27558;SDS011;15002;52.028;5.670;2023-03-21T07:29:46;19.45;;;9.85;;
27558;SDS011;15002;52.028;5.670;2023-03-21T07:32:11;28.20;;;11.00;;
27558;SDS011;15002;52.028;5.670;2023-03-21T07:34:37;22.25;;;10.75;;
27558;SDS011;15002;52.028;5.670;2023-03-21T07:37:03;27.15;;;12.25;;
27558;SDS011;15002;52.028;5.670;2023-03-21T07:39:29;23.10;;;12.18;;
27558;SDS011;15002;52.028;5.670;2023-03-21T07:41:56;26.27;;;12.77;;
27558;SDS011;15002;52.028;5.670;2023-03-21T07:44:23;26.10;;;12.18;;
27558;SDS011;15002;52.028;5.670;2023-03-21T07:46:49;21.15;;;10.93;;
27558;SDS011;15002;52.028;5.670;2023-03-21T07:49:14;24.98;;;10.45;;
27558;SDS011;15002;52.028;5.670;2023-03-21T07:51:40;20.70;;;10.15;;
27558;SDS011;15002;52.028;5.670;2023-03-21T07:54:06;20.85;;;9.63;;
27558;SDS011;15002;52.028;5.670;2023-03-21T07:56:32;23.77;;;9.88;;
27558;SDS011;15002;52.028;5.670;2023-03-21T07:58:57;22.05;;;10.55;;
27558;SDS011;15002;52.028;5.670;2023-03-21T08:01:23;18.20;;;10.35;;
27558;SDS011;15002;52.028;5.670;2023-03-21T08:03:50;22.83;;;9.60;;
27558;SDS011;15002;52.028;5.670;2023-03-21T08:06:18;19.35;;;10.38;;
27558;SDS011;15002;52.028;5.670;2023-03-21T08:08:44;18.15;;;10.23;;
27558;SDS011;15002;52.028;5.670;2023-03-21T08:11:10;22.35;;;10.57;;
27558;SDS011;15002;52.028;5.670;2023-03-21T08:13:36;19.65;;;9.65;;
27558;SDS011;15002;52.028;5.670;2023-03-21T08:16:02;22.10;;;11.10;;
27558;SDS011;15002;52.028;5.670;2023-03-21T08:18:28;27.20;;;10.35;;
27558;SDS011;15002;52.028;5.670;2023-03-21T08:20:54;22.38;;;10.43;;
27558;SDS011;15002;52.028;5.670;2023-03-21T08:23:21;20.27;;;9.52;;
27558;SDS011;15002;52.028;5.670;2023-03-21T08:25:52;22.85;;;10.13;;
27558;SDS011;15002;52.028;5.670;2023-03-21T08:28:18;25.77;;;10.48;;
27558;SDS011;15002;52.028;5.670;2023-03-21T08:30:45;20.95;;;9.80;;
27558;SDS011;15002;52.028;5.670;2023-03-21T08:33:11;21.83;;;10.32;;
27558;SDS011;15002;52.028;5.670;2023-03-21T08:35:37;19.52;;;10.10;;
27558;SDS011;15002;52.028;5.670;2023-03-21T08:38:04;22.20;;;9.55;;
27558;SDS011;15002;52.028;5.670;2023-03-21T08:40:30;11.75;;;6.97;;
27558;SDS011;15002;52.028;5.670;2023-03-21T08:42:56;15.10;;;7.15;;
27558;SDS011;15002;52.028;5.670;2023-03-21T08:45:22;14.90;;;8.13;;
27558;SDS011;15002;52.028;5.670;2023-03-21T08:47:49;13.65;;;6.55;;
27558;SDS011;15002;52.028;5.670;2023-03-21T08:50:19;13.63;;;6.72;;
27558;SDS011;15002;52.028;5.670;2023-03-21T08:52:46;17.30;;;8.38;;
27558;SDS011;15002;52.028;5.670;2023-03-21T08:55:13;11.85;;;7.18;;
27558;SDS011;15002;52.028;5.670;2023-03-21T08:57:41;15.23;;;8.82;;
27558;SDS011;15002;52.028;5.670;2023-03-21T09:00:08;19.55;;;8.85;;
27558;SDS011;15002;52.028;5.670;2023-03-21T09:02:39;16.17;;;8.65;;
27558;SDS011;15002;52.028;5.670;2023-03-21T09:05:07;19.05;;;8.95;;
27558;SDS011;15002;52.028;5.670;2023-03-21T09:07:36;15.80;;;7.97;;
27558;SDS011;15002;52.028;5.670;2023-03-21T09:10:03;15.25;;;7.45;;
27558;SDS011;15002;52.028;5.670;2023-03-21T09:12:30;13.95;;;6.85;;
27558;SDS011;15002;52.028;5.670;2023-03-21T09:14:57;13.02;;;7.18;;
27558;SDS011;15002;52.028;5.670;2023-03-21T09:17:23;16.00;;;6.80;;
27558;SDS011;15002;52.028;5.670;2023-03-21T09:19:48;15.18;;;6.47;;
27558;SDS011;15002;52.028;5.670;2023-03-21T09:22:14;14.30;;;7.55;;
27558;SDS011;15002;52.028;5.670;2023-03-21T09:24:45;14.05;;;7.70;;
27558;SDS011;15002;52.028;5.670;2023-03-21T09:27:14;13.57;;;6.68;;
27558;SDS011;15002;52.028;5.670;2023-03-21T09:29:48;11.48;;;6.70;;
27558;SDS011;15002;52.028;5.670;2023-03-21T09:32:14;13.23;;;6.80;;
27558;SDS011;15002;52.028;5.670;2023-03-21T09:34:42;13.15;;;7.05;;
27558;SDS011;15002;52.028;5.670;2023-03-21T09:37:08;14.60;;;7.57;;
27558;SDS011;15002;52.028;5.670;2023-03-21T09:39:35;13.68;;;7.10;;
27558;SDS011;15002;52.028;5.670;2023-03-21T09:47:27;14.65;;;7.22;;
27558;SDS011;15002;52.028;5.670;2023-03-21T09:50:00;13.30;;;7.57;;
27558;SDS011;15002;52.028;5.670;2023-03-21T09:52:35;14.98;;;7.80;;
27558;SDS011;15002;52.028;5.670;2023-03-21T09:55:18;10.95;;;6.88;;
27558;SDS011;15002;52.028;5.670;2023-03-21T09:57:49;14.07;;;7.50;;
27558;SDS011;15002;52.028;5.670;2023-03-21T10:00:31;13.88;;;7.55;;
27558;SDS011;15002;52.028;5.670;2023-03-21T10:03:05;13.77;;;7.82;;
27558;SDS011;15002;52.028;5.670;2023-03-21T10:05:41;13.77;;;7.25;;
27558;SDS011;15002;52.028;5.670;2023-03-21T10:10:47;15.63;;;7.20;;
27558;SDS011;15002;52.028;5.670;2023-03-21T10:13:16;10.80;;;6.97;;
27558;SDS011;15002;52.028;5.670;2023-03-21T10:16:01;15.68;;;7.88;;
27558;SDS011;15002;52.028;5.670;2023-03-21T10:18:39;10.73;;;6.78;;
27558;SDS011;15002;52.028;5.670;2023-03-21T10:21:06;14.52;;;6.68;;
27558;SDS011;15002;52.028;5.670;2023-03-21T10:23:38;21.52;;;7.20;;
27558;SDS011;15002;52.028;5.670;2023-03-21T10:26:04;11.35;;;5.93;;
27558;SDS011;15002;52.028;5.670;2023-03-21T10:28:34;12.32;;;6.22;;
27558;SDS011;15002;52.028;5.670;2023-03-21T10:31:04;12.55;;;6.30;;
27558;SDS011;15002;52.028;5.670;2023-03-21T10:33:35;13.80;;;6.75;;
27558;SDS011;15002;52.028;5.670;2023-03-21T10:36:07;11.30;;;6.65;;
27558;SDS011;15002;52.028;5.670;2023-03-21T10:41:28;14.77;;;6.45;;
27558;SDS011;15002;52.028;5.670;2023-03-21T10:44:11;9.35;;;5.90;;
27558;SDS011;15002;52.028;5.670;2023-03-21T10:46:51;12.88;;;6.45;;
27558;SDS011;15002;52.028;5.670;2023-03-21T10:49:18;12.40;;;6.40;;
27558;SDS011;15002;52.028;5.670;2023-03-21T10:51:45;10.88;;;6.03;;
27558;SDS011;15002;52.028;5.670;2023-03-21T10:54:19;14.60;;;6.82;;
27558;SDS011;15002;52.028;5.670;2023-03-21T10:57:05;12.73;;;6.18;;
27558;SDS011;15002;52.028;5.670;2023-03-21T10:59:54;13.52;;;6.70;;
27558;SDS011;15002;52.028;5.670;2023-03-21T11:02:27;14.55;;;6.00;;
27558;SDS011;15002;52.028;5.670;2023-03-21T11:04:57;10.73;;;5.65;;
27558;SDS011;15002;52.028;5.670;2023-03-21T11:07:30;11.60;;;6.30;;
27558;SDS011;15002;52.028;5.670;2023-03-21T11:09:57;10.25;;;6.10;;
27558;SDS011;15002;52.028;5.670;2023-03-21T11:12:38;11.13;;;6.60;;
27558;SDS011;15002;52.028;5.670;2023-03-21T11:17:55;11.65;;;6.30;;
27558;SDS011;15002;52.028;5.670;2023-03-21T11:20:21;12.30;;;5.45;;
27558;SDS011;15002;52.028;5.670;2023-03-21T11:22:47;9.25;;;5.97;;
27558;SDS011;15002;52.028;5.670;2023-03-21T11:28:04;11.20;;;6.07;;
27558;SDS011;15002;52.028;5.670;2023-03-21T11:30:33;18.73;;;6.20;;
27558;SDS011;15002;52.028;5.670;2023-03-21T11:33:02;9.77;;;5.68;;
27558;SDS011;15002;52.028;5.670;2023-03-21T11:35:34;11.00;;;6.57;;
27558;SDS011;15002;52.028;5.670;2023-03-21T11:38:02;11.85;;;6.82;;
27558;SDS011;15002;52.028;5.670;2023-03-21T11:40:30;18.40;;;6.70;;
27558;SDS011;15002;52.028;5.670;2023-03-21T11:42:59;14.32;;;7.13;;
27558;SDS011;15002;52.028;5.670;2023-03-21T11:45:26;11.00;;;5.97;;
27558;SDS011;15002;52.028;5.670;2023-03-21T11:47:56;11.85;;;5.68;;
27558;SDS011;15002;52.028;5.670;2023-03-21T12:09:40;16.00;;;6.55;;
27558;SDS011;15002;52.028;5.670;2023-03-21T12:12:25;11.95;;;5.88;;
27558;SDS011;15002;52.028;5.670;2023-03-21T12:22:50;12.60;;;5.53;;
27558;SDS011;15002;52.028;5.670;2023-03-21T12:25:38;10.52;;;5.35;;
27558;SDS011;15002;52.028;5.670;2023-03-21T12:33:40;10.55;;;5.40;;
27558;SDS011;15002;52.028;5.670;2023-03-21T12:36:30;11.40;;;5.50;;
27558;SDS011;15002;52.028;5.670;2023-03-21T12:39:23;13.30;;;5.88;;
27558;SDS011;15002;52.028;5.670;2023-03-21T12:44:35;10.27;;;6.25;;
27558;SDS011;15002;52.028;5.670;2023-03-21T12:47:05;11.23;;;6.40;;
27558;SDS011;15002;52.028;5.670;2023-03-21T12:49:38;11.65;;;6.28;;
27558;SDS011;15002;52.028;5.670;2023-03-21T12:52:20;12.07;;;6.15;;
27558;SDS011;15002;52.028;5.670;2023-03-21T13:00:44;11.93;;;5.70;;
27558;SDS011;15002;52.028;5.670;2023-03-21T13:03:17;11.85;;;6.35;;
27558;SDS011;15002;52.028;5.670;2023-03-21T13:06:08;11.48;;;5.68;;
27558;SDS011;15002;52.028;5.670;2023-03-21T13:08:57;8.65;;;5.70;;
27558;SDS011;15002;52.028;5.670;2023-03-21T13:11:29;11.13;;;5.43;;
27558;SDS011;15002;52.028;5.670;2023-03-21T13:14:11;10.43;;;6.03;;
27558;SDS011;15002;52.028;5.670;2023-03-21T13:16:51;8.23;;;5.47;;
27558;SDS011;15002;52.028;5.670;2023-03-21T13:19:57;8.38;;;5.43;;
27558;SDS011;15002;52.028;5.670;2023-03-21T13:22:30;11.05;;;6.22;;
27558;SDS011;15002;52.028;5.670;2023-03-21T13:30:06;11.32;;;6.65;;
27558;SDS011;15002;52.028;5.670;2023-03-21T13:32:48;12.00;;;5.72;;
27558;SDS011;15002;52.028;5.670;2023-03-21T13:35:34;9.30;;;6.93;;
27558;SDS011;15002;52.028;5.670;2023-03-21T13:46:06;9.23;;;5.72;;
27558;SDS011;15002;52.028;5.670;2023-03-21T13:48:42;11.02;;;6.22;;
27558;SDS011;15002;52.028;5.670;2023-03-21T13:59:38;11.20;;;6.35;;
27558;SDS011;15002;52.028;5.670;2023-03-21T14:05:06;10.95;;;7.25;;
27558;SDS011;15002;52.028;5.670;2023-03-21T14:07:45;19.15;;;8.45;;
27558;SDS011;15002;52.028;5.670;2023-03-21T14:10:21;14.32;;;8.38;;
27558;SDS011;15002;52.028;5.670;2023-03-21T14:12:52;12.63;;;9.48;;
27558;SDS011;15002;52.028;5.670;2023-03-21T14:15:22;13.98;;;8.80;;
27558;SDS011;15002;52.028;5.670;2023-03-21T14:17:54;12.25;;;9.18;;
27558;SDS011;15002;52.028;5.670;2023-03-21T14:20:32;10.68;;;8.65;;
27558;SDS011;15002;52.028;5.670;2023-03-21T14:23:03;14.63;;;9.30;;
27558;SDS011;15002;52.028;5.670;2023-03-21T14:25:34;10.68;;;7.97;;
27558;SDS011;15002;52.028;5.670;2023-03-21T14:28:02;10.68;;;7.70;;
27558;SDS011;15002;52.028;5.670;2023-03-21T14:33:17;10.25;;;7.45;;
27558;SDS011;15002;52.028;5.670;2023-03-21T14:35:47;10.25;;;7.28;;
27558;SDS011;15002;52.028;5.670;2023-03-21T14:38:18;8.23;;;7.20;;
27558;SDS011;15002;52.028;5.670;2023-03-21T14:40:50;12.05;;;7.22;;
27558;SDS011;15002;52.028;5.670;2023-03-21T14:43:21;12.75;;;7.45;;
27558;SDS011;15002;52.028;5.670;2023-03-21T14:45:51;14.77;;;7.20;;
27558;SDS011;15002;52.028;5.670;2023-03-21T14:48:19;8.07;;;6.30;;
27558;SDS011;15002;52.028;5.670;2023-03-21T14:50:53;10.98;;;6.95;;
27558;SDS011;15002;52.028;5.670;2023-03-21T14:53:22;10.68;;;7.03;;
27558;SDS011;15002;52.028;5.670;2023-03-21T14:55:58;10.25;;;6.72;;
27558;SDS011;15002;52.028;5.670;2023-03-21T14:58:30;11.88;;;7.60;;
27558;SDS011;15002;52.028;5.670;2023-03-21T15:01:00;11.50;;;7.45;;
27558;SDS011;15002;52.028;5.670;2023-03-21T15:03:28;12.23;;;7.30;;
27558;SDS011;15002;52.028;5.670;2023-03-21T15:05:55;12.00;;;6.93;;
27558;SDS011;15002;52.028;5.670;2023-03-21T15:08:22;11.65;;;6.97;;
27558;SDS011;15002;52.028;5.670;2023-03-21T15:11:06;12.40;;;7.45;;
27558;SDS011;15002;52.028;5.670;2023-03-21T15:13:46;12.15;;;7.45;;
27558;SDS011;15002;52.028;5.670;2023-03-21T15:16:16;12.73;;;7.32;;
27558;SDS011;15002;52.028;5.670;2023-03-21T15:18:43;13.02;;;7.88;;
27558;SDS011;15002;52.028;5.670;2023-03-21T15:21:16;10.18;;;7.20;;
27558;SDS011;15002;52.028;5.670;2023-03-21T15:23:44;9.32;;;6.95;;
27558;SDS011;15002;52.028;5.670;2023-03-21T15:26:16;12.65;;;7.43;;
27558;SDS011;15002;52.028;5.670;2023-03-21T15:28:44;14.30;;;7.93;;
27558;SDS011;15002;52.028;5.670;2023-03-21T15:31:18;11.45;;;7.18;;
27558;SDS011;15002;52.028;5.670;2023-03-21T15:33:50;10.15;;;7.88;;
27558;SDS011;15002;52.028;5.670;2023-03-21T15:36:18;10.02;;;8.13;;
27558;SDS011;15002;52.028;5.670;2023-03-21T15:38:46;12.50;;;8.55;;
27558;SDS011;15002;52.028;5.670;2023-03-21T15:43:46;10.13;;;7.40;;
27558;SDS011;15002;52.028;5.670;2023-03-21T15:46:30;12.77;;;7.97;;
27558;SDS011;15002;52.028;5.670;2023-03-21T15:49:09;12.80;;;8.13;;
27558;SDS011;15002;52.028;5.670;2023-03-21T15:51:57;11.40;;;8.25;;
27558;SDS011;15002;52.028;5.670;2023-03-21T15:57:21;12.05;;;9.13;;
27558;SDS011;15002;52.028;5.670;2023-03-21T15:59:55;14.15;;;8.43;;
27558;SDS011;15002;52.028;5.670;2023-03-21T16:02:27;14.02;;;9.13;;
27558;SDS011;15002;52.028;5.670;2023-03-21T16:04:55;11.52;;;8.48;;
27558;SDS011;15002;52.028;5.670;2023-03-21T16:07:44;14.82;;;9.52;;
27558;SDS011;15002;52.028;5.670;2023-03-21T16:10:17;11.90;;;8.52;;
27558;SDS011;15002;52.028;5.670;2023-03-21T16:13:00;12.48;;;8.85;;
27558;SDS011;15002;52.028;5.670;2023-03-21T16:15:27;14.85;;;9.10;;
27558;SDS011;15002;52.028;5.670;2023-03-21T16:17:54;11.60;;;8.93;;
27558;SDS011;15002;52.028;5.670;2023-03-21T16:20:23;13.00;;;8.88;;
27558;SDS011;15002;52.028;5.670;2023-03-21T16:22:53;13.70;;;8.95;;
27558;SDS011;15002;52.028;5.670;2023-03-21T16:25:18;11.18;;;8.77;;
27558;SDS011;15002;52.028;5.670;2023-03-21T16:27:45;15.00;;;8.65;;
27558;SDS011;15002;52.028;5.670;2023-03-21T16:30:13;13.57;;;8.13;;
27558;SDS011;15002;52.028;5.670;2023-03-21T16:32:40;12.40;;;8.75;;
27558;SDS011;15002;52.028;5.670;2023-03-21T16:35:05;13.73;;;9.60;;
27558;SDS011;15002;52.028;5.670;2023-03-21T16:37:32;13.77;;;8.98;;
27558;SDS011;15002;52.028;5.670;2023-03-21T16:39:58;12.27;;;9.10;;
27558;SDS011;15002;52.028;5.670;2023-03-21T16:42:24;10.38;;;8.90;;
27558;SDS011;15002;52.028;5.670;2023-03-21T16:44:50;14.27;;;10.13;;
27558;SDS011;15002;52.028;5.670;2023-03-21T16:47:16;13.98;;;9.43;;
27558;SDS011;15002;52.028;5.670;2023-03-21T16:49:44;11.90;;;9.80;;
27558;SDS011;15002;52.028;5.670;2023-03-21T16:52:11;15.52;;;9.93;;
27558;SDS011;15002;52.028;5.670;2023-03-21T16:54:38;14.75;;;9.73;;
27558;SDS011;15002;52.028;5.670;2023-03-21T16:57:05;14.18;;;10.05;;
27558;SDS011;15002;52.028;5.670;2023-03-21T16:59:36;14.45;;;10.45;;
27558;SDS011;15002;52.028;5.670;2023-03-21T17:02:12;18.33;;;10.75;;
27558;SDS011;15002;52.028;5.670;2023-03-21T17:04:41;16.50;;;10.80;;
27558;SDS011;15002;52.028;5.670;2023-03-21T17:07:09;13.13;;;10.82;;
27558;SDS011;15002;52.028;5.670;2023-03-21T17:09:39;15.43;;;11.45;;